Time;durP1;ratioP1;P1;durP2;ratioP2;P2;SDS_P1;SDS_P2;PMS_P1;PMS_P2;Temp;Humidity;BMP_temperature;BMP_pressure;BME280_temperature;BME280_humidity;BME280_pressure;Samples;Min_cycle;Max_cycle;Signal;HPM_P1;HPM_P2
2024/01/03 00:00:28;;;;;;;13.82;2.10;;;9.70;99.90;;;;;;5032878;28;20037;-53
2024/01/03 00:02:57;;;;;;;14.32;1.42;;;9.70;99.90;;;;;;5032589;28;20498;-54
2024/01/03 00:05:25;;;;;;;5.10;0.60;;;9.60;99.90;;;;;;5032614;28;20482;-54
2024/01/03 00:07:51;;;;;;;8.38;0.98;;;9.50;99.90;;;;;;5032790;28;20030;-51
2024/01/03 00:10:37;;;;;;;18.95;0.98;;;9.50;99.90;;;;;;5032865;28;20529;-52
2024/01/03 00:13:05;;;;;;;6.65;0.80;;;9.50;99.90;;;;;;5032740;28;20490;-55
2024/01/03 00:15:53;;;;;;;9.27;2.63;;;9.50;99.90;;;;;;5032643;28;20064;-50
2024/01/03 00:18:29;;;;;;;11.70;1.30;;;9.50;99.90;;;;;;5026911;28;20565;-56
2024/01/03 00:20:57;;;;;;;15.27;1.73;;;9.50;99.90;;;;;;5032970;28;20502;-52
2024/01/03 00:23:32;;;;;;;12.50;1.98;;;9.50;99.90;;;;;;5032605;28;20497;-47
2024/01/03 00:25:58;;;;;;;13.63;3.08;;;9.50;99.90;;;;;;5032431;28;20494;-51
2024/01/03 00:28:23;;;;;;;10.48;1.83;;;9.50;99.90;;;;;;5031197;28;20128;-50
2024/01/03 00:30:49;;;;;;;10.43;1.75;;;9.50;99.90;;;;;;5032518;28;20104;-50
2024/01/03 00:33:15;;;;;;;14.25;2.33;;;9.50;99.90;;;;;;5032561;28;20029;-51
2024/01/03 00:35:43;;;;;;;12.90;1.77;;;9.50;99.90;;;;;;5032505;28;20091;-51
2024/01/03 00:38:08;;;;;;;11.45;1.50;;;9.50;99.90;;;;;;5032511;28;20037;-51
2024/01/03 00:40:36;;;;;;;12.65;1.88;;;9.50;99.90;;;;;;5032459;28;20394;-50
2024/01/03 00:43:02;;;;;;;16.80;2.30;;;9.50;99.90;;;;;;5040815;28;20449;-48
2024/01/03 00:45:28;;;;;;;10.95;1.95;;;9.40;99.90;;;;;;5031287;28;20022;-52
2024/01/03 00:47:53;;;;;;;12.95;1.58;;;9.50;99.90;;;;;;5031101;28;20409;-50
2024/01/03 00:50:19;;;;;;;11.77;2.13;;;9.50;99.90;;;;;;5032428;28;20441;-52
2024/01/03 00:52:45;;;;;;;16.35;1.98;;;9.50;99.90;;;;;;5032563;28;20084;-51
2024/01/03 00:55:11;;;;;;;28.45;4.28;;;9.50;99.90;;;;;;5032364;28;20080;-51
2024/01/03 00:57:37;;;;;;;16.92;1.92;;;9.50;99.90;;;;;;5032288;28;20620;-52
2024/01/03 01:00:04;;;;;;;16.65;2.20;;;9.50;99.90;;;;;;5032103;28;20082;-51
2024/01/03 01:02:29;;;;;;;12.95;1.60;;;9.50;99.90;;;;;;5032514;28;20497;-51
2024/01/03 01:04:55;;;;;;;21.85;2.30;;;9.50;99.90;;;;;;5032157;28;20038;-52
2024/01/03 01:07:21;;;;;;;17.05;2.33;;;9.60;99.90;;;;;;5032222;28;20458;-49
2024/01/03 01:09:47;;;;;;;13.65;3.08;;;9.70;99.90;;;;;;5032100;28;20490;-50
2024/01/03 01:12:13;;;;;;;26.40;2.40;;;9.80;99.90;;;;;;5031986;28;20040;-49
2024/01/03 01:14:39;;;;;;;37.05;3.10;;;9.90;99.90;;;;;;5032145;28;20029;-49
2024/01/03 01:17:04;;;;;;;12.32;1.88;;;10.00;99.90;;;;;;5035596;28;20025;-52
2024/01/03 01:19:30;;;;;;;12.40;2.45;;;10.00;99.90;;;;;;5035439;28;20498;-46
2024/01/03 01:21:56;;;;;;;21.50;3.35;;;10.10;99.90;;;;;;5035627;28;20572;-52
2024/01/03 01:24:21;;;;;;;21.20;2.63;;;10.10;99.90;;;;;;5035603;28;20500;-47
2024/01/03 01:26:47;;;;;;;9.30;1.58;;;10.20;99.90;;;;;;5035499;28;20130;-50
2024/01/03 01:29:13;;;;;;;23.27;2.55;;;10.20;99.90;;;;;;5035510;28;20041;-48
2024/01/03 01:31:39;;;;;;;17.48;2.08;;;10.20;99.90;;;;;;5034225;28;20398;-50
2024/01/03 01:34:05;;;;;;;18.92;3.60;;;10.20;99.90;;;;;;5035535;28;20393;-54
2024/01/03 01:36:31;;;;;;;19.75;2.30;;;10.30;99.90;;;;;;5035448;28;20112;-45
2024/01/03 01:38:56;;;;;;;18.23;2.30;;;10.30;99.90;;;;;;5034032;28;20060;-51
2024/01/03 01:41:22;;;;;;;14.85;1.88;;;10.30;99.90;;;;;;5038206;28;20017;-49
2024/01/03 01:43:48;;;;;;;18.10;2.92;;;10.40;99.90;;;;;;5055229;28;20437;-51
2024/01/03 01:46:14;;;;;;;19.52;2.92;;;10.40;99.90;;;;;;5036343;28;20112;-51
2024/01/03 01:48:42;;;;;;;20.73;2.05;;;10.40;99.90;;;;;;5035163;28;20397;-48
2024/01/03 01:51:09;;;;;;;18.92;2.03;;;10.40;99.90;;;;;;5035063;28;20486;-51
2024/01/03 01:53:38;;;;;;;8.55;2.25;;;10.40;99.90;;;;;;5035390;28;20021;-47
2024/01/03 01:56:04;;;;;;;17.42;1.73;;;10.40;99.90;;;;;;5035280;28;20036;-49
2024/01/03 01:58:30;;;;;;;14.50;2.10;;;10.40;99.90;;;;;;5035009;28;20112;-51
2024/01/03 02:00:57;;;;;;;14.32;1.80;;;10.40;99.90;;;;;;5034969;28;20469;-50
2024/01/03 02:03:23;;;;;;;20.67;2.75;;;10.50;99.90;;;;;;5034553;28;20402;-46
2024/01/03 02:05:49;;;;;;;19.08;3.35;;;10.50;99.90;;;;;;5033895;28;20033;-52
2024/01/03 02:08:16;;;;;;;18.38;2.95;;;10.40;99.90;;;;;;5033294;28;20375;-50
2024/01/03 02:10:41;;;;;;;26.63;4.20;;;10.50;99.90;;;;;;5034616;28;20068;-50
2024/01/03 02:13:07;;;;;;;18.42;3.63;;;10.50;99.90;;;;;;5034647;28;20478;-50
2024/01/03 02:15:33;;;;;;;21.17;2.65;;;10.50;99.90;;;;;;5034930;28;20037;-47
2024/01/03 02:18:01;;;;;;;17.92;2.38;;;10.50;99.90;;;;;;5034639;28;20035;-50
2024/01/03 02:20:34;;;;;;;20.80;2.53;;;10.50;99.90;;;;;;5034474;28;20068;-49
2024/01/03 02:23:00;;;;;;;18.48;2.65;;;10.50;99.90;;;;;;5034609;28;20103;-49
2024/01/03 02:25:26;;;;;;;14.25;2.95;;;10.50;99.90;;;;;;5034200;28;20657;-47
2024/01/03 02:27:51;;;;;;;22.17;1.83;;;10.50;99.90;;;;;;5033343;28;20025;-49
2024/01/03 02:30:17;;;;;;;15.98;2.22;;;10.50;99.90;;;;;;5034365;28;20382;-52
2024/01/03 02:32:43;;;;;;;14.93;2.03;;;10.50;99.90;;;;;;5034304;28;20040;-51
2024/01/03 02:35:08;;;;;;;12.25;2.47;;;10.50;99.90;;;;;;5034327;28;20057;-47
2024/01/03 02:37:35;;;;;;;26.60;4.68;;;10.50;99.90;;;;;;5034217;28;20079;-51
2024/01/03 02:40:00;;;;;;;16.25;3.20;;;10.50;99.90;;;;;;5034226;28;20498;-47
2024/01/03 02:42:26;;;;;;;19.83;2.78;;;10.50;99.90;;;;;;5033908;28;20040;-47
2024/01/03 02:44:52;;;;;;;11.55;1.70;;;10.40;99.90;;;;;;5034222;28;20030;-52
2024/01/03 02:47:17;;;;;;;16.25;2.30;;;10.50;99.90;;;;;;5034282;28;20025;-49
2024/01/03 02:49:43;;;;;;;20.60;2.53;;;10.50;99.90;;;;;;5034004;28;20068;-52
2024/01/03 02:52:08;;;;;;;18.52;1.63;;;10.50;99.90;;;;;;5033987;28;20164;-50
2024/01/03 02:54:34;;;;;;;15.60;2.13;;;10.50;99.90;;;;;;5033870;28;20029;-54
2024/01/03 02:57:00;;;;;;;15.90;2.42;;;10.60;99.90;;;;;;5033876;28;20466;-52
2024/01/03 02:59:25;;;;;;;8.82;1.90;;;10.60;99.90;;;;;;5033636;28;20500;-52
2024/01/03 03:01:51;;;;;;;14.57;1.42;;;10.70;99.90;;;;;;5033709;28;20037;-51
2024/01/03 03:04:17;;;;;;;10.88;2.38;;;10.70;99.90;;;;;;5033941;28;20029;-52
2024/01/03 03:06:43;;;;;;;16.83;1.85;;;10.70;99.90;;;;;;5033641;28;20091;-51
2024/01/03 03:09:08;;;;;;;11.80;2.25;;;10.60;99.90;;;;;;5033873;28;20025;-52
2024/01/03 03:11:34;;;;;;;14.48;1.98;;;10.70;99.90;;;;;;5033474;28;20030;-52
2024/01/03 03:14:00;;;;;;;27.85;2.78;;;10.70;99.90;;;;;;5033743;28;20025;-51
2024/01/03 03:16:25;;;;;;;13.63;1.65;;;10.70;99.90;;;;;;5033300;28;20025;-53
2024/01/03 03:18:51;;;;;;;14.50;2.72;;;10.60;99.90;;;;;;5033359;28;20047;-52
2024/01/03 03:21:17;;;;;;;19.45;2.72;;;10.60;99.90;;;;;;5033454;28;20029;-53
2024/01/03 03:23:42;;;;;;;20.80;2.17;;;10.70;99.90;;;;;;5033411;28;20043;-48
2024/01/03 03:26:10;;;;;;;23.52;2.53;;;10.80;99.90;;;;;;5033283;28;20405;-53
2024/01/03 03:28:36;;;;;;;6.22;1.98;;;10.70;99.90;;;;;;5032077;28;20033;-52
2024/01/03 03:31:03;;;;;;;15.88;2.28;;;10.80;99.90;;;;;;5033550;28;20018;-53
2024/01/03 03:33:31;;;;;;;21.63;2.40;;;10.80;99.90;;;;;;5033204;28;20032;-50
2024/01/03 03:35:56;;;;;;;16.67;3.35;;;10.70;99.90;;;;;;5033126;28;20032;-54
2024/01/03 03:38:22;;;;;;;15.73;2.17;;;10.80;99.90;;;;;;5032802;28;20214;-54
2024/01/03 03:40:48;;;;;;;16.83;2.72;;;10.80;99.90;;;;;;5033339;28;20052;-54
2024/01/03 03:43:13;;;;;;;28.58;2.85;;;10.80;99.90;;;;;;5032926;28;20033;-52
2024/01/03 03:45:39;;;;;;;15.68;2.50;;;10.80;99.90;;;;;;5032858;28;20119;-54
2024/01/03 03:48:05;;;;;;;18.60;2.33;;;10.80;99.90;;;;;;5033386;28;20048;-41
2024/01/03 03:50:31;;;;;;;17.90;2.35;;;10.80;99.90;;;;;;5033118;28;20489;-38
2024/01/03 03:52:56;;;;;;;17.02;2.28;;;10.80;99.90;;;;;;5032936;28;20026;-39
2024/01/03 03:55:22;;;;;;;14.68;1.88;;;10.90;99.90;;;;;;5032955;28;20108;-38
2024/01/03 03:57:48;;;;;;;7.88;1.85;;;10.90;99.90;;;;;;5033392;28;20482;-39
2024/01/03 04:00:14;;;;;;;16.58;2.97;;;11.00;99.90;;;;;;5033156;28;20033;-39
2024/01/03 04:02:40;;;;;;;15.63;3.38;;;11.00;99.90;;;;;;5032849;28;20501;-38
2024/01/03 04:05:06;;;;;;;24.77;4.20;;;11.00;99.90;;;;;;5032716;28;20037;-42
2024/01/03 04:07:32;;;;;;;32.50;3.15;;;11.00;99.90;;;;;;5032531;28;20037;-39
2024/01/03 04:09:57;;;;;;;34.05;3.03;;;11.00;99.90;;;;;;5032761;28;20470;-41
2024/01/03 04:12:23;;;;;;;35.85;3.35;;;11.00;99.90;;;;;;5032631;28;20033;-38
2024/01/03 04:14:49;;;;;;;20.08;2.97;;;11.00;99.90;;;;;;5032933;28;20029;-39
2024/01/03 04:17:15;;;;;;;28.75;3.00;;;11.00;99.90;;;;;;5032689;28;20410;-38
2024/01/03 04:19:41;;;;;;;25.23;2.60;;;11.00;99.90;;;;;;5032478;28;20551;-40
2024/01/03 04:22:07;;;;;;;25.27;4.63;;;10.90;99.90;;;;;;5032689;28;20038;-40
2024/01/03 04:24:33;;;;;;;28.02;5.10;;;10.90;99.90;;;;;;5032412;28;20505;-40
2024/01/03 04:26:59;;;;;;;31.92;3.25;;;10.90;99.90;;;;;;5032582;28;20025;-53
2024/01/03 04:29:27;;;;;;;22.42;3.47;;;10.90;99.90;;;;;;5032591;28;20025;-53
2024/01/03 04:31:53;;;;;;;15.38;2.75;;;11.00;99.90;;;;;;5032833;28;20522;-53
2024/01/03 04:34:19;;;;;;;24.25;3.53;;;11.00;99.90;;;;;;5032790;28;20129;-54
2024/01/03 04:36:45;;;;;;;29.25;3.13;;;11.00;99.90;;;;;;5032490;28;20155;-57
2024/01/03 04:39:10;;;;;;;27.98;3.17;;;11.00;99.90;;;;;;5032789;28;20052;-51
2024/01/03 04:41:36;;;;;;;20.67;3.35;;;11.00;99.90;;;;;;5032248;28;20119;-53
2024/01/03 04:44:04;;;;;;;22.50;2.90;;;11.00;99.90;;;;;;5032318;28;20029;-50
2024/01/03 04:46:30;;;;;;;39.03;3.28;;;11.00;99.90;;;;;;5032387;28;20026;-50
2024/01/03 04:48:55;;;;;;;27.35;3.70;;;11.00;99.90;;;;;;5031145;28;20474;-53
2024/01/03 04:51:22;;;;;;;15.15;2.20;;;11.00;99.90;;;;;;5034815;28;20108;-51
2024/01/03 04:53:47;;;;;;;19.55;3.47;;;11.00;99.90;;;;;;5036399;28;20390;-54
2024/01/03 04:56:13;;;;;;;28.02;3.70;;;11.10;99.90;;;;;;5034882;28;20042;-52
2024/01/03 04:58:39;;;;;;;31.38;3.03;;;11.10;99.90;;;;;;5035979;28;20025;-51
2024/01/03 05:01:04;;;;;;;23.10;3.20;;;11.00;99.90;;;;;;5036091;28;20041;-52
2024/01/03 05:03:30;;;;;;;18.13;3.25;;;11.00;99.90;;;;;;5036047;28;20037;-54
2024/01/03 05:05:55;;;;;;;31.02;3.80;;;11.00;99.90;;;;;;5035887;28;20022;-52
2024/01/03 05:08:21;;;;;;;28.35;4.10;;;11.10;99.90;;;;;;5035996;28;20018;-53
2024/01/03 05:10:47;;;;;;;25.13;4.13;;;11.10;99.90;;;;;;5035891;28;20537;-52
2024/01/03 05:13:12;;;;;;;36.35;4.32;;;11.00;99.90;;;;;;5035871;28;20168;-53
2024/01/03 05:15:38;;;;;;;32.30;3.33;;;11.10;99.90;;;;;;5035957;28;20167;-53
2024/01/03 05:18:04;;;;;;;32.33;3.97;;;11.00;99.90;;;;;;5035778;28;20485;-52
2024/01/03 05:20:29;;;;;;;35.90;4.68;;;11.10;99.90;;;;;;5034668;28;20080;-53
2024/01/03 05:22:55;;;;;;;18.23;3.03;;;11.10;99.90;;;;;;5035730;28;20415;-53
2024/01/03 05:25:21;;;;;;;33.75;3.75;;;11.00;99.90;;;;;;5035548;28;20029;-52
2024/01/03 05:27:48;;;;;;;23.00;3.97;;;10.90;99.90;;;;;;5035495;28;20045;-52
2024/01/03 05:30:13;;;;;;;18.73;2.95;;;10.80;99.90;;;;;;5035434;28;20021;-49
2024/01/03 05:32:39;;;;;;;19.95;2.85;;;10.70;99.90;;;;;;5035368;28;20021;-47
2024/01/03 05:35:05;;;;;;;26.35;4.40;;;10.60;99.90;;;;;;5035389;28;20025;-53
2024/01/03 05:37:31;;;;;;;27.63;3.45;;;10.60;99.90;;;;;;5035373;28;20481;-52
2024/01/03 05:39:57;;;;;;;19.48;2.63;;;10.50;99.90;;;;;;5035324;28;20397;-53
2024/01/03 05:42:23;;;;;;;12.13;2.08;;;10.40;99.90;;;;;;5034008;28;20128;-46
2024/01/03 05:44:49;;;;;;;15.98;2.10;;;10.40;99.90;;;;;;5035049;28;20365;-56
2024/01/03 05:47:14;;;;;;;16.00;2.47;;;10.40;99.90;;;;;;5035398;28;20030;-50
2024/01/03 05:49:41;;;;;;;16.33;2.30;;;10.40;99.90;;;;;;5034954;28;20075;-50
2024/01/03 05:52:07;;;;;;;23.83;2.88;;;10.40;99.90;;;;;;5033831;28;20029;-50
2024/01/03 05:54:32;;;;;;;15.07;2.28;;;10.40;99.90;;;;;;5035101;28;20037;-38
2024/01/03 05:57:00;;;;;;;28.08;1.77;;;10.30;99.90;;;;;;5035039;28;20057;-37
2024/01/03 05:59:25;;;;;;;13.85;2.97;;;10.30;99.90;;;;;;5035291;28;20033;-36
2024/01/03 06:01:51;;;;;;;12.70;1.48;;;10.30;99.90;;;;;;5033454;28;20037;-38
2024/01/03 06:04:17;;;;;;;15.20;2.10;;;10.30;99.90;;;;;;5034748;28;20094;-36
2024/01/03 06:06:42;;;;;;;11.13;1.60;;;10.30;99.90;;;;;;5033342;28;20042;-38
2024/01/03 06:09:09;;;;;;;15.57;1.98;;;10.30;99.90;;;;;;5035038;28;20040;-36
2024/01/03 06:11:35;;;;;;;8.88;1.90;;;10.30;99.90;;;;;;5034648;28;20064;-36
2024/01/03 06:14:00;;;;;;;9.90;1.17;;;10.30;99.90;;;;;;5034700;28;20371;-35
2024/01/03 06:16:26;;;;;;;4.78;1.70;;;10.30;99.90;;;;;;5034676;28;20032;-35
2024/01/03 06:18:51;;;;;;;12.20;1.70;;;10.20;99.90;;;;;;5034436;28;20498;-36
2024/01/03 06:21:18;;;;;;;11.65;1.73;;;10.10;99.90;;;;;;5034547;28;20018;-35
2024/01/03 06:23:43;;;;;;;12.45;1.77;;;10.10;99.90;;;;;;5033066;28;20068;-34
2024/01/03 06:26:09;;;;;;;7.95;1.15;;;10.10;99.90;;;;;;5034395;28;20056;-37
2024/01/03 06:28:35;;;;;;;18.52;1.88;;;10.10;99.90;;;;;;5033460;28;20024;-36
2024/01/03 06:31:04;;;;;;;17.38;1.98;;;10.10;99.90;;;;;;5034326;28;20025;-37
2024/01/03 06:33:32;;;;;;;11.63;1.65;;;10.10;99.90;;;;;;5034355;28;20056;-37
2024/01/03 06:35:59;;;;;;;17.38;4.03;;;10.10;99.90;;;;;;5034159;28;20022;-37
2024/01/03 06:38:25;;;;;;;11.27;1.73;;;10.20;99.90;;;;;;5034491;28;20029;-38
2024/01/03 06:40:51;;;;;;;9.88;2.13;;;10.10;99.90;;;;;;5034260;28;20063;-36
2024/01/03 06:43:17;;;;;;;6.03;1.55;;;10.10;99.90;;;;;;5034342;28;20486;-39
2024/01/03 06:45:42;;;;;;;14.82;1.77;;;10.10;99.90;;;;;;5033957;28;20033;-36
2024/01/03 06:48:08;;;;;;;11.30;1.73;;;10.10;99.90;;;;;;5034270;28;20052;-36
2024/01/03 06:50:34;;;;;;;10.45;1.20;;;10.10;99.90;;;;;;5034009;28;20068;-37
2024/01/03 06:53:00;;;;;;;16.50;2.40;;;10.10;99.90;;;;;;5033960;28;20029;-36
2024/01/03 06:55:25;;;;;;;13.07;1.58;;;10.20;99.90;;;;;;5033956;28;20042;-37
2024/01/03 06:57:53;;;;;;;9.80;1.80;;;10.20;99.90;;;;;;5033723;28;20104;-37
2024/01/03 07:00:19;;;;;;;2.42;0.80;;;10.20;99.90;;;;;;5033773;28;20124;-37
2024/01/03 07:02:45;;;;;;;10.38;1.38;;;10.20;99.90;;;;;;5033639;28;20091;-37
2024/01/03 07:05:11;;;;;;;13.05;1.48;;;10.20;99.90;;;;;;5032487;28;20036;-37
2024/01/03 07:07:37;;;;;;;17.65;1.40;;;10.10;99.90;;;;;;5033672;28;20037;-35
2024/01/03 07:10:03;;;;;;;15.73;1.98;;;10.10;99.90;;;;;;5034148;28;20045;-37
2024/01/03 07:12:28;;;;;;;8.60;1.80;;;10.10;99.90;;;;;;5033279;28;20033;-36
2024/01/03 07:14:56;;;;;;;7.75;1.42;;;10.10;99.90;;;;;;5033091;28;20030;-35
2024/01/03 07:17:22;;;;;;;6.72;1.27;;;10.10;99.90;;;;;;5032367;28;20025;-36
2024/01/03 07:19:47;;;;;;;10.13;1.10;;;10.00;99.90;;;;;;5033220;28;20114;-37
2024/01/03 07:22:13;;;;;;;15.73;1.23;;;10.10;99.90;;;;;;5033409;28;20033;-40
2024/01/03 07:24:39;;;;;;;4.57;0.85;;;10.00;99.90;;;;;;5033542;28;20044;-36
2024/01/03 07:27:04;;;;;;;3.00;0.93;;;10.00;99.90;;;;;;5033348;28;20506;-36
2024/01/03 07:29:30;;;;;;;4.25;0.85;;;10.00;99.90;;;;;;5033548;28;20018;-37
2024/01/03 07:31:56;;;;;;;7.25;1.10;;;10.10;99.90;;;;;;5031809;28;20397;-38
2024/01/03 07:34:21;;;;;;;15.65;0.90;;;10.00;99.90;;;;;;5033119;28;20052;-39
2024/01/03 07:36:47;;;;;;;7.45;1.00;;;9.90;99.90;;;;;;5033184;28;20072;-37
2024/01/03 07:39:12;;;;;;;14.20;0.90;;;9.90;99.90;;;;;;5033089;28;20026;-36
2024/01/03 07:41:38;;;;;;;10.73;0.88;;;9.90;99.90;;;;;;5032901;28;20021;-34
2024/01/03 07:44:04;;;;;;;12.73;1.77;;;9.90;99.90;;;;;;5032942;28;20064;-35
2024/01/03 07:46:29;;;;;;;8.07;1.92;;;9.90;99.90;;;;;;5032892;28;20053;-37
2024/01/03 07:48:55;;;;;;;10.55;1.20;;;9.90;99.90;;;;;;5032884;28;20084;-37
2024/01/03 07:51:21;;;;;;;5.40;1.27;;;9.80;99.90;;;;;;5032984;28;20060;-35
2024/01/03 07:53:46;;;;;;;8.85;0.77;;;9.90;99.90;;;;;;5032924;28;20025;-37
2024/01/03 07:56:12;;;;;;;8.02;0.85;;;9.90;99.90;;;;;;5032937;28;20064;-36
2024/01/03 07:58:38;;;;;;;7.43;0.80;;;9.90;99.90;;;;;;5033473;28;20022;-37
2024/01/03 08:01:04;;;;;;;12.48;1.35;;;9.90;99.90;;;;;;5032825;28;20033;-37
2024/01/03 08:03:29;;;;;;;16.00;0.95;;;9.90;99.90;;;;;;5032835;28;20076;-37
2024/01/03 08:05:55;;;;;;;6.60;1.33;;;9.90;99.90;;;;;;5032820;28;20017;-37
2024/01/03 08:08:20;;;;;;;11.75;1.40;;;9.90;99.90;;;;;;5032731;28;20017;-38
2024/01/03 08:10:46;;;;;;;8.45;1.23;;;9.90;99.90;;;;;;5032950;28;20025;-39
2024/01/03 08:13:12;;;;;;;13.98;2.20;;;10.00;99.90;;;;;;5032758;28;20501;-37
2024/01/03 08:15:38;;;;;;;12.48;1.25;;;10.00;99.90;;;;;;5032687;28;20080;-37
2024/01/03 08:18:03;;;;;;;11.43;2.00;;;10.00;99.90;;;;;;5032678;28;20025;-40
2024/01/03 08:20:29;;;;;;;8.55;1.10;;;10.00;99.90;;;;;;5032504;28;20391;-37
2024/01/03 08:22:55;;;;;;;19.02;1.63;;;10.00;99.90;;;;;;5032716;28;20022;-38
2024/01/03 08:25:21;;;;;;;12.32;1.40;;;10.00;99.90;;;;;;5035127;28;20024;-38
2024/01/03 08:27:47;;;;;;;11.48;1.75;;;10.00;99.90;;;;;;5036925;28;20454;-41
2024/01/03 08:30:13;;;;;;;18.98;1.60;;;10.10;99.90;;;;;;5036641;28;20030;-41
2024/01/03 08:32:40;;;;;;;18.50;2.40;;;10.10;99.90;;;;;;5036806;28;20071;-37
2024/01/03 08:35:09;;;;;;;10.23;2.42;;;10.10;99.90;;;;;;5036862;28;20512;-38
2024/01/03 08:37:34;;;;;;;13.30;1.60;;;10.20;99.90;;;;;;5036753;28;20486;-41
2024/01/03 08:40:03;;;;;;;16.83;1.70;;;10.20;99.90;;;;;;5036191;28;20061;-38
2024/01/03 08:42:29;;;;;;;13.60;1.90;;;10.20;99.90;;;;;;5048863;28;20458;-37
2024/01/03 08:44:55;;;;;;;16.77;1.60;;;10.30;99.90;;;;;;5048433;28;20020;-38
2024/01/03 08:47:20;;;;;;;13.63;2.00;;;10.30;99.90;;;;;;5036232;28;20014;-39
2024/01/03 08:49:46;;;;;;;19.05;3.03;;;10.40;99.90;;;;;;5036268;28;20459;-38
2024/01/03 08:52:12;;;;;;;22.17;3.33;;;10.40;99.90;;;;;;5036268;28;20389;-39
2024/01/03 08:54:39;;;;;;;21.77;2.05;;;10.50;99.90;;;;;;5036257;28;20029;-39
2024/01/03 08:57:04;;;;;;;22.35;1.67;;;10.50;99.90;;;;;;5036000;28;20045;-36
2024/01/03 08:59:30;;;;;;;16.73;1.83;;;10.50;99.90;;;;;;5036150;28;20088;-38
2024/01/03 09:01:56;;;;;;;6.47;2.28;;;10.50;99.90;;;;;;5034762;28;20462;-37
2024/01/03 09:04:22;;;;;;;12.10;2.15;;;10.50;99.90;;;;;;5035960;28;20108;-41
2024/01/03 09:06:50;;;;;;;27.20;2.55;;;10.60;99.90;;;;;;5035933;28;20026;-37
2024/01/03 09:09:16;;;;;;;20.15;2.30;;;10.60;99.90;;;;;;5034787;28;20510;-40
2024/01/03 09:11:42;;;;;;;9.27;1.70;;;10.70;99.90;;;;;;5035785;28;20024;-41
2024/01/03 09:14:07;;;;;;;19.85;1.80;;;10.70;99.90;;;;;;5035941;28;20425;-35
2024/01/03 09:16:33;;;;;;;10.23;1.63;;;10.80;99.90;;;;;;5035999;28;20034;-38
2024/01/03 09:18:59;;;;;;;24.73;2.40;;;10.80;99.90;;;;;;5035582;28;20124;-40
2024/01/03 09:21:26;;;;;;;18.08;2.20;;;10.80;99.90;;;;;;5035901;28;20458;-38
2024/01/03 09:23:52;;;;;;;24.97;2.47;;;10.80;99.90;;;;;;5035661;28;20167;-37
2024/01/03 09:26:22;;;;;;;14.93;2.17;;;10.80;99.90;;;;;;5035510;28;20370;-39
2024/01/03 09:28:49;;;;;;;22.55;2.42;;;10.90;99.90;;;;;;5035101;28;20113;-36
2024/01/03 09:31:15;;;;;;;11.63;2.60;;;10.90;99.90;;;;;;5035383;28;20028;-38
2024/01/03 09:33:40;;;;;;;21.45;2.63;;;10.90;99.90;;;;;;5035443;28;20030;-37
2024/01/03 09:36:15;;;;;;;15.02;1.42;;;10.90;99.90;;;;;;5034989;28;20025;-40
2024/01/03 09:38:41;;;;;;;13.40;2.45;;;10.80;99.90;;;;;;5035361;28;20394;-39
2024/01/03 09:41:12;;;;;;;27.88;4.18;;;10.80;99.90;;;;;;5036194;28;20021;-40
2024/01/03 09:43:48;;;;;;;14.13;2.42;;;10.80;99.90;;;;;;5053828;28;20443;-39
2024/01/03 09:46:13;;;;;;;10.95;1.77;;;10.70;99.90;;;;;;5036107;28;20051;-41
2024/01/03 09:48:44;;;;;;;8.48;2.17;;;10.70;99.90;;;;;;5035198;28;20089;-37
2024/01/03 09:51:10;;;;;;;16.77;2.20;;;10.50;99.90;;;;;;5035091;28;20056;-37
2024/01/03 09:53:37;;;;;;;9.15;1.27;;;10.50;99.90;;;;;;5035036;28;20053;-37
2024/01/03 09:56:02;;;;;;;10.52;1.52;;;10.40;99.90;;;;;;5033747;28;20041;-40
2024/01/03 09:58:28;;;;;;;17.83;2.05;;;10.30;99.90;;;;;;5034945;28;20486;-35
2024/01/03 10:00:55;;;;;;;23.17;2.42;;;10.40;99.90;;;;;;5035180;28;20021;-36
2024/01/03 10:03:20;;;;;;;22.58;1.67;;;10.30;99.90;;;;;;5034699;28;20021;-37
2024/01/03 10:05:46;;;;;;;13.15;1.45;;;10.30;99.90;;;;;;5034803;28;20032;-35
2024/01/03 10:08:17;;;;;;;12.80;1.65;;;10.30;99.90;;;;;;5034779;28;20021;-36
2024/01/03 10:10:45;;;;;;;28.58;2.33;;;10.20;99.90;;;;;;5034923;28;20037;-36
2024/01/03 10:13:24;;;;;;;13.05;2.67;;;10.20;99.90;;;;;;5034940;28;20025;-35
2024/01/03 10:15:50;;;;;;;9.88;1.83;;;10.20;99.90;;;;;;5034674;28;20017;-34
2024/01/03 10:18:17;;;;;;;23.67;3.97;;;10.20;99.90;;;;;;5034384;28;20064;-36
2024/01/03 10:20:43;;;;;;;15.87;2.43;;;10.30;99.90;;;;;;5034522;28;20040;-37
2024/01/03 10:23:10;;;;;;;18.50;2.30;;;10.20;99.90;;;;;;5034518;28;20264;-36
2024/01/03 10:25:41;;;;;;;10.13;2.67;;;10.20;99.90;;;;;;5034332;28;20116;-36
2024/01/03 10:28:15;;;;;;;11.63;1.50;;;10.30;99.90;;;;;;5034342;28;20529;-35
2024/01/03 10:30:41;;;;;;;14.65;2.28;;;10.40;99.90;;;;;;5033152;28;20524;-36
2024/01/03 10:33:08;;;;;;;11.85;2.53;;;10.40;99.90;;;;;;5034252;28;20025;-36
2024/01/03 10:35:37;;;;;;;11.07;2.33;;;10.40;99.90;;;;;;5034292;28;20080;-36
2024/01/03 10:38:04;;;;;;;21.55;2.20;;;10.50;99.90;;;;;;5034046;28;20068;-37
2024/01/03 10:40:32;;;;;;;13.35;1.75;;;10.50;99.90;;;;;;5034186;28;20068;-35
2024/01/03 10:42:58;;;;;;;12.75;1.85;;;10.50;99.90;;;;;;5050286;28;20430;-35
2024/01/03 10:45:25;;;;;;;14.50;2.00;;;10.60;99.90;;;;;;5041820;28;20029;-37
2024/01/03 10:47:51;;;;;;;14.38;2.00;;;10.60;99.90;;;;;;5033123;28;20497;-35
2024/01/03 10:50:18;;;;;;;10.43;1.42;;;10.70;99.90;;;;;;5034049;28;20497;-37
2024/01/03 10:52:45;;;;;;;11.50;2.10;;;10.70;99.90;;;;;;5033974;28;20493;-34
2024/01/03 10:55:24;;;;;;;16.70;2.10;;;10.80;99.90;;;;;;5033851;28;20068;-35
2024/01/03 10:57:58;;;;;;;20.02;1.65;;;10.80;99.90;;;;;;5034138;28;20716;-36
2024/01/03 11:00:30;;;;;;;12.90;1.63;;;10.80;99.90;;;;;;5033801;28;20095;-35
2024/01/03 11:03:37;;;;;;;14.23;1.10;;;10.80;99.90;;;;;;5019443;28;20034;-35
2024/01/03 11:06:25;;;;;;;18.60;2.53;;;10.80;99.90;;;;;;5006433;28;20042;-37
2024/01/03 11:08:59;;;;;;;15.00;1.63;;;10.80;99.90;;;;;;5012664;28;20051;-38
2024/01/03 11:11:30;;;;;;;11.35;2.15;;;10.80;99.90;;;;;;5016820;28;20524;-36
2024/01/03 11:13:57;;;;;;;18.15;3.30;;;10.80;99.90;;;;;;5033792;28;20037;-36
2024/01/03 11:16:43;;;;;;;17.52;2.63;;;10.80;99.90;;;;;;5033390;28;20481;-36
2024/01/03 11:19:09;;;;;;;15.80;2.75;;;10.80;99.90;;;;;;5033080;28;20080;-38
2024/01/03 11:21:35;;;;;;;16.75;2.78;;;10.80;99.90;;;;;;5033356;28;20048;-36
2024/01/03 11:24:21;;;;;;;14.68;2.08;;;10.80;99.90;;;;;;5033579;28;20026;-36
2024/01/03 11:26:52;;;;;;;13.00;1.92;;;10.80;99.90;;;;;;5029231;28;20045;-36
2024/01/03 11:29:42;;;;;;;25.70;2.00;;;10.90;99.90;;;;;;5033073;28;20034;-37
2024/01/03 11:32:15;;;;;;;24.38;3.63;;;10.90;99.90;;;;;;5033472;28;20486;-37
2024/01/03 11:34:41;;;;;;;11.55;1.27;;;11.00;99.90;;;;;;5033247;28;20364;-37
2024/01/03 11:37:29;;;;;;;16.30;2.45;;;11.10;99.90;;;;;;5033074;28;20409;-37
2024/01/03 11:39:56;;;;;;;18.58;2.53;;;11.10;99.90;;;;;;5026265;28;20038;-37
2024/01/03 11:42:38;;;;;;;29.48;2.67;;;11.10;99.90;;;;;;5044156;28;20029;-36
2024/01/03 11:45:07;;;;;;;16.42;1.75;;;11.20;99.90;;;;;;5043242;28;20022;-36
2024/01/03 11:47:41;;;;;;;18.55;2.15;;;11.20;99.90;;;;;;5033164;28;20120;-37
2024/01/03 11:50:08;;;;;;;26.70;3.78;;;11.30;99.90;;;;;;5033202;28;20417;-39
2024/01/03 11:52:39;;;;;;;18.98;2.85;;;11.30;99.90;;;;;;5033192;28;20482;-36
2024/01/03 11:55:12;;;;;;;8.70;1.48;;;11.30;99.90;;;;;;5032925;28;20033;-37
2024/01/03 11:57:46;;;;;;;27.20;2.88;;;11.30;99.90;;;;;;5033011;28;20079;-36
2024/01/03 12:00:20;;;;;;;19.63;1.90;;;11.20;99.90;;;;;;5032868;28;20519;-37
2024/01/03 12:02:53;;;;;;;20.45;2.85;;;11.20;99.90;;;;;;5032869;28;20033;-38
2024/01/03 12:05:20;;;;;;;33.13;5.05;;;11.10;99.90;;;;;;5032650;28;20029;-36
2024/01/03 12:07:48;;;;;;;20.55;2.88;;;11.10;99.90;;;;;;5032462;28;20539;-38
2024/01/03 12:10:15;;;;;;;19.80;2.40;;;11.10;99.90;;;;;;5032726;28;20087;-39
2024/01/03 12:12:43;;;;;;;26.95;3.20;;;11.10;99.90;;;;;;5032645;28;20033;-39
2024/01/03 12:15:18;;;;;;;24.55;4.13;;;11.20;99.90;;;;;;5033026;28;20546;-37
2024/01/03 12:17:44;;;;;;;21.60;3.05;;;11.20;99.90;;;;;;5015831;28;20026;-38
2024/01/03 12:20:14;;;;;;;20.70;4.25;;;11.30;99.90;;;;;;5021983;28;20048;-40
2024/01/03 12:22:40;;;;;;;23.98;3.83;;;11.40;99.90;;;;;;5032545;28;20053;-39
2024/01/03 12:25:07;;;;;;;21.40;3.20;;;11.40;99.90;;;;;;5028849;28;20540;-38
2024/01/03 12:27:33;;;;;;;25.48;4.13;;;11.40;99.90;;;;;;5032537;28;20040;-38
2024/01/03 12:30:12;;;;;;;22.10;4.20;;;11.40;99.90;;;;;;5032652;28;20425;-39
2024/01/03 12:32:38;;;;;;;32.33;4.10;;;11.50;99.90;;;;;;5031207;28;20487;-39
2024/01/03 12:35:04;;;;;;;22.05;4.55;;;11.80;99.90;;;;;;5032559;28;20112;-39
2024/01/03 12:37:29;;;;;;;16.58;3.28;;;11.90;99.90;;;;;;5032363;28;20029;-39
2024/01/03 12:39:55;;;;;;;28.00;3.63;;;12.00;99.90;;;;;;5032442;28;20490;-40